sensor_id;sensor_type;location;lat;lon;timestamp;P1;durP1;ratioP1;P2;durP2;ratioP2
29984;SDS011;17387;42.690;23.328;2022-08-03T00:01:28;4.88;;;2.70;;
29984;SDS011;17387;42.690;23.328;2022-08-03T00:03:54;6.57;;;2.92;;
29984;SDS011;17387;42.690;23.328;2022-08-03T00:06:19;6.45;;;3.10;;
29984;SDS011;17387;42.690;23.328;2022-08-03T00:08:45;4.60;;;2.80;;
29984;SDS011;17387;42.690;23.328;2022-08-03T00:11:10;4.47;;;3.00;;
29984;SDS011;17387;42.690;23.328;2022-08-03T00:13:36;5.85;;;3.00;;
29984;SDS011;17387;42.690;23.328;2022-08-03T00:16:01;5.10;;;2.72;;
29984;SDS011;17387;42.690;23.328;2022-08-03T00:18:27;4.57;;;2.90;;
29984;SDS011;17387;42.690;23.328;2022-08-03T00:20:52;7.50;;;2.95;;
29984;SDS011;17387;42.690;23.328;2022-08-03T00:23:17;4.88;;;3.00;;
29984;SDS011;17387;42.690;23.328;2022-08-03T00:25:43;4.15;;;2.75;;
29984;SDS011;17387;42.690;23.328;2022-08-03T00:28:08;4.55;;;2.78;;
29984;SDS011;17387;42.690;23.328;2022-08-03T00:30:34;5.53;;;2.50;;
29984;SDS011;17387;42.690;23.328;2022-08-03T00:33:00;4.30;;;3.50;;
29984;SDS011;17387;42.690;23.328;2022-08-03T00:35:26;4.82;;;2.95;;
29984;SDS011;17387;42.690;23.328;2022-08-03T00:37:52;7.70;;;3.22;;
29984;SDS011;17387;42.690;23.328;2022-08-03T00:40:18;7.00;;;2.90;;
29984;SDS011;17387;42.690;23.328;2022-08-03T00:42:48;6.72;;;2.83;;
29984;SDS011;17387;42.690;23.328;2022-08-03T00:45:15;4.63;;;3.20;;
29984;SDS011;17387;42.690;23.328;2022-08-03T00:47:42;6.65;;;3.60;;
29984;SDS011;17387;42.690;23.328;2022-08-03T00:50:07;10.02;;;3.13;;
29984;SDS011;17387;42.690;23.328;2022-08-03T00:52:33;3.67;;;2.88;;
29984;SDS011;17387;42.690;23.328;2022-08-03T00:54:59;5.22;;;2.75;;
29984;SDS011;17387;42.690;23.328;2022-08-03T00:57:26;7.80;;;2.90;;
29984;SDS011;17387;42.690;23.328;2022-08-03T00:59:54;4.50;;;2.60;;
29984;SDS011;17387;42.690;23.328;2022-08-03T01:02:20;6.57;;;3.08;;
29984;SDS011;17387;42.690;23.328;2022-08-03T01:04:45;6.18;;;2.88;;
29984;SDS011;17387;42.690;23.328;2022-08-03T01:20:32;3.70;;;2.40;;
29984;SDS011;17387;42.690;23.328;2022-08-03T01:26:05;3.42;;;2.60;;
29984;SDS011;17387;42.690;23.328;2022-08-03T01:31:38;2.83;;;2.50;;
29984;SDS011;17387;42.690;23.328;2022-08-03T01:34:07;4.03;;;2.80;;
29984;SDS011;17387;42.690;23.328;2022-08-03T01:39:07;4.13;;;2.40;;
29984;SDS011;17387;42.690;23.328;2022-08-03T01:41:34;4.90;;;2.42;;
29984;SDS011;17387;42.690;23.328;2022-08-03T01:44:05;4.60;;;2.50;;
29984;SDS011;17387;42.690;23.328;2022-08-03T01:46:34;3.27;;;2.53;;
29984;SDS011;17387;42.690;23.328;2022-08-03T01:49:01;4.22;;;2.45;;
29984;SDS011;17387;42.690;23.328;2022-08-03T01:51:28;5.13;;;2.55;;
29984;SDS011;17387;42.690;23.328;2022-08-03T01:53:55;5.18;;;2.60;;
29984;SDS011;17387;42.690;23.328;2022-08-03T01:56:23;4.00;;;2.72;;
29984;SDS011;17387;42.690;23.328;2022-08-03T01:58:52;5.10;;;2.60;;
29984;SDS011;17387;42.690;23.328;2022-08-03T02:01:19;4.30;;;2.58;;
29984;SDS011;17387;42.690;23.328;2022-08-03T02:03:46;5.43;;;2.58;;
29984;SDS011;17387;42.690;23.328;2022-08-03T02:06:14;2.55;;;2.28;;
29984;SDS011;17387;42.690;23.328;2022-08-03T02:08:43;2.83;;;2.50;;
29984;SDS011;17387;42.690;23.328;2022-08-03T02:11:11;4.32;;;2.47;;
29984;SDS011;17387;42.690;23.328;2022-08-03T02:13:37;3.97;;;2.38;;
29984;SDS011;17387;42.690;23.328;2022-08-03T02:16:03;3.00;;;2.45;;
29984;SDS011;17387;42.690;23.328;2022-08-03T02:18:30;3.72;;;2.70;;
29984;SDS011;17387;42.690;23.328;2022-08-03T02:20:58;4.00;;;3.35;;
29984;SDS011;17387;42.690;23.328;2022-08-03T02:23:26;5.28;;;3.03;;
29984;SDS011;17387;42.690;23.328;2022-08-03T02:25:52;3.88;;;2.78;;
29984;SDS011;17387;42.690;23.328;2022-08-03T02:28:31;4.43;;;2.50;;
29984;SDS011;17387;42.690;23.328;2022-08-03T02:30:59;5.47;;;2.80;;
29984;SDS011;17387;42.690;23.328;2022-08-03T02:33:33;3.63;;;2.80;;
29984;SDS011;17387;42.690;23.328;2022-08-03T02:36:02;3.70;;;2.55;;
29984;SDS011;17387;42.690;23.328;2022-08-03T02:38:33;3.65;;;2.88;;
29984;SDS011;17387;42.690;23.328;2022-08-03T02:41:02;3.50;;;2.78;;
29984;SDS011;17387;42.690;23.328;2022-08-03T02:43:31;3.20;;;2.90;;
29984;SDS011;17387;42.690;23.328;2022-08-03T02:45:59;8.43;;;2.97;;
29984;SDS011;17387;42.690;23.328;2022-08-03T02:48:29;3.78;;;2.80;;
29984;SDS011;17387;42.690;23.328;2022-08-03T02:50:58;2.90;;;2.60;;
29984;SDS011;17387;42.690;23.328;2022-08-03T02:53:25;3.35;;;2.72;;
29984;SDS011;17387;42.690;23.328;2022-08-03T02:55:52;4.85;;;2.90;;
29984;SDS011;17387;42.690;23.328;2022-08-03T02:58:19;3.72;;;2.70;;
29984;SDS011;17387;42.690;23.328;2022-08-03T03:00:47;5.47;;;3.13;;
29984;SDS011;17387;42.690;23.328;2022-08-03T03:03:15;8.93;;;2.97;;
29984;SDS011;17387;42.690;23.328;2022-08-03T03:05:41;5.55;;;3.03;;
29984;SDS011;17387;42.690;23.328;2022-08-03T03:08:09;4.60;;;3.17;;
29984;SDS011;17387;42.690;23.328;2022-08-03T03:10:40;6.60;;;3.13;;
29984;SDS011;17387;42.690;23.328;2022-08-03T03:13:07;4.65;;;3.10;;
29984;SDS011;17387;42.690;23.328;2022-08-03T03:15:34;6.57;;;3.40;;
29984;SDS011;17387;42.690;23.328;2022-08-03T03:18:03;8.07;;;3.10;;
29984;SDS011;17387;42.690;23.328;2022-08-03T03:20:31;6.63;;;3.70;;
29984;SDS011;17387;42.690;23.328;2022-08-03T03:22:59;3.67;;;3.33;;
29984;SDS011;17387;42.690;23.328;2022-08-03T03:25:27;5.55;;;3.13;;
29984;SDS011;17387;42.690;23.328;2022-08-03T03:27:54;5.80;;;3.20;;
29984;SDS011;17387;42.690;23.328;2022-08-03T03:30:20;5.18;;;3.13;;
29984;SDS011;17387;42.690;23.328;2022-08-03T03:32:46;3.40;;;3.10;;
29984;SDS011;17387;42.690;23.328;2022-08-03T03:35:12;6.65;;;3.05;;
29984;SDS011;17387;42.690;23.328;2022-08-03T03:37:38;4.65;;;3.17;;
29984;SDS011;17387;42.690;23.328;2022-08-03T03:40:04;5.38;;;3.53;;
29984;SDS011;17387;42.690;23.328;2022-08-03T03:42:30;10.25;;;3.65;;
29984;SDS011;17387;42.690;23.328;2022-08-03T03:44:56;8.05;;;3.47;;
29984;SDS011;17387;42.690;23.328;2022-08-03T03:47:21;6.57;;;3.47;;
29984;SDS011;17387;42.690;23.328;2022-08-03T03:49:47;4.88;;;3.28;;
29984;SDS011;17387;42.690;23.328;2022-08-03T03:52:37;7.28;;;4.18;;
29984;SDS011;17387;42.690;23.328;2022-08-03T03:55:03;6.00;;;3.58;;
29984;SDS011;17387;42.690;23.328;2022-08-03T03:57:29;5.38;;;3.53;;
29984;SDS011;17387;42.690;23.328;2022-08-03T03:59:54;6.20;;;3.90;;
29984;SDS011;17387;42.690;23.328;2022-08-03T04:02:19;5.63;;;3.90;;
29984;SDS011;17387;42.690;23.328;2022-08-03T04:04:45;4.28;;;3.40;;
29984;SDS011;17387;42.690;23.328;2022-08-03T04:07:30;8.48;;;3.63;;
29984;SDS011;17387;42.690;23.328;2022-08-03T04:10:25;11.43;;;3.80;;
29984;SDS011;17387;42.690;23.328;2022-08-03T04:13:11;5.75;;;4.05;;
29984;SDS011;17387;42.690;23.328;2022-08-03T04:15:39;6.40;;;4.43;;
29984;SDS011;17387;42.690;23.328;2022-08-03T04:18:07;7.30;;;4.18;;
29984;SDS011;17387;42.690;23.328;2022-08-03T04:20:36;11.07;;;4.50;;
29984;SDS011;17387;42.690;23.328;2022-08-03T04:23:04;6.75;;;4.78;;
29984;SDS011;17387;42.690;23.328;2022-08-03T04:25:32;8.93;;;4.65;;
29984;SDS011;17387;42.690;23.328;2022-08-03T04:28:00;5.95;;;4.20;;
29984;SDS011;17387;42.690;23.328;2022-08-03T04:30:27;7.15;;;4.82;;
29984;SDS011;17387;42.690;23.328;2022-08-03T04:32:56;10.90;;;4.53;;
29984;SDS011;17387;42.690;23.328;2022-08-03T04:35:23;9.13;;;4.38;;
29984;SDS011;17387;42.690;23.328;2022-08-03T04:37:52;8.60;;;4.35;;
29984;SDS011;17387;42.690;23.328;2022-08-03T04:40:24;7.18;;;4.50;;
29984;SDS011;17387;42.690;23.328;2022-08-03T04:43:00;7.18;;;4.40;;
29984;SDS011;17387;42.690;23.328;2022-08-03T04:45:29;8.75;;;4.15;;
29984;SDS011;17387;42.690;23.328;2022-08-03T04:47:56;9.60;;;4.70;;
29984;SDS011;17387;42.690;23.328;2022-08-03T04:50:23;9.38;;;5.03;;
29984;SDS011;17387;42.690;23.328;2022-08-03T04:52:49;12.40;;;5.28;;
29984;SDS011;17387;42.690;23.328;2022-08-03T04:55:27;12.13;;;5.50;;
29984;SDS011;17387;42.690;23.328;2022-08-03T04:57:57;9.00;;;5.93;;
29984;SDS011;17387;42.690;23.328;2022-08-03T05:00:23;11.95;;;6.55;;
29984;SDS011;17387;42.690;23.328;2022-08-03T05:02:49;12.82;;;6.30;;
29984;SDS011;17387;42.690;23.328;2022-08-03T05:05:15;17.35;;;6.35;;
29984;SDS011;17387;42.690;23.328;2022-08-03T05:07:41;10.02;;;5.57;;
29984;SDS011;17387;42.690;23.328;2022-08-03T05:10:07;7.88;;;5.90;;
29984;SDS011;17387;42.690;23.328;2022-08-03T05:12:34;9.57;;;5.85;;
29984;SDS011;17387;42.690;23.328;2022-08-03T05:15:00;7.95;;;5.30;;
29984;SDS011;17387;42.690;23.328;2022-08-03T05:17:26;7.60;;;5.18;;
29984;SDS011;17387;42.690;23.328;2022-08-03T05:19:52;16.15;;;5.38;;
29984;SDS011;17387;42.690;23.328;2022-08-03T05:22:19;8.35;;;5.53;;
29984;SDS011;17387;42.690;23.328;2022-08-03T05:24:45;10.45;;;7.10;;
29984;SDS011;17387;42.690;23.328;2022-08-03T05:27:11;11.40;;;6.38;;
29984;SDS011;17387;42.690;23.328;2022-08-03T05:29:41;16.60;;;5.85;;
29984;SDS011;17387;42.690;23.328;2022-08-03T05:32:07;19.10;;;10.07;;
29984;SDS011;17387;42.690;23.328;2022-08-03T05:34:33;14.13;;;8.10;;
29984;SDS011;17387;42.690;23.328;2022-08-03T05:36:58;12.77;;;6.93;;
29984;SDS011;17387;42.690;23.328;2022-08-03T05:39:24;15.52;;;8.45;;
29984;SDS011;17387;42.690;23.328;2022-08-03T05:41:49;15.82;;;7.30;;
29984;SDS011;17387;42.690;23.328;2022-08-03T05:44:14;14.80;;;6.85;;
29984;SDS011;17387;42.690;23.328;2022-08-03T05:46:40;13.27;;;6.57;;
29984;SDS011;17387;42.690;23.328;2022-08-03T05:49:05;14.65;;;7.45;;
29984;SDS011;17387;42.690;23.328;2022-08-03T05:51:31;15.75;;;6.65;;
29984;SDS011;17387;42.690;23.328;2022-08-03T05:53:56;16.20;;;6.88;;
29984;SDS011;17387;42.690;23.328;2022-08-03T05:56:22;19.25;;;7.18;;
29984;SDS011;17387;42.690;23.328;2022-08-03T05:58:51;10.15;;;6.40;;
29984;SDS011;17387;42.690;23.328;2022-08-03T06:01:17;14.30;;;6.72;;
29984;SDS011;17387;42.690;23.328;2022-08-03T06:03:45;14.60;;;8.45;;
29984;SDS011;17387;42.690;23.328;2022-08-03T06:06:10;11.15;;;6.28;;
29984;SDS011;17387;42.690;23.328;2022-08-03T06:08:36;12.07;;;6.55;;
29984;SDS011;17387;42.690;23.328;2022-08-03T06:11:02;13.45;;;6.72;;
29984;SDS011;17387;42.690;23.328;2022-08-03T06:13:28;10.50;;;7.00;;
29984;SDS011;17387;42.690;23.328;2022-08-03T06:15:54;14.85;;;7.97;;
29984;SDS011;17387;42.690;23.328;2022-08-03T06:18:19;10.18;;;7.13;;
29984;SDS011;17387;42.690;23.328;2022-08-03T06:20:45;13.57;;;7.80;;
29984;SDS011;17387;42.690;23.328;2022-08-03T06:23:11;9.73;;;5.88;;
29984;SDS011;17387;42.690;23.328;2022-08-03T06:25:36;8.13;;;5.55;;
29984;SDS011;17387;42.690;23.328;2022-08-03T06:28:01;11.45;;;6.90;;
29984;SDS011;17387;42.690;23.328;2022-08-03T06:30:29;9.45;;;5.43;;
29984;SDS011;17387;42.690;23.328;2022-08-03T06:32:54;10.30;;;5.50;;
29984;SDS011;17387;42.690;23.328;2022-08-03T06:35:20;9.30;;;5.22;;
29984;SDS011;17387;42.690;23.328;2022-08-03T06:37:46;11.32;;;5.90;;
29984;SDS011;17387;42.690;23.328;2022-08-03T06:40:15;12.68;;;5.25;;
29984;SDS011;17387;42.690;23.328;2022-08-03T06:42:43;7.20;;;5.18;;
29984;SDS011;17387;42.690;23.328;2022-08-03T06:45:08;7.93;;;5.45;;
29984;SDS011;17387;42.690;23.328;2022-08-03T06:47:35;8.82;;;5.97;;
29984;SDS011;17387;42.690;23.328;2022-08-03T06:50:01;10.98;;;5.35;;
29984;SDS011;17387;42.690;23.328;2022-08-03T06:52:28;14.20;;;7.57;;
29984;SDS011;17387;42.690;23.328;2022-08-03T06:54:53;13.50;;;8.63;;
29984;SDS011;17387;42.690;23.328;2022-08-03T06:57:19;8.45;;;5.75;;
29984;SDS011;17387;42.690;23.328;2022-08-03T06:59:44;12.50;;;6.30;;
29984;SDS011;17387;42.690;23.328;2022-08-03T07:02:10;12.23;;;5.60;;
29984;SDS011;17387;42.690;23.328;2022-08-03T07:04:36;11.50;;;5.72;;
29984;SDS011;17387;42.690;23.328;2022-08-03T07:07:01;10.32;;;4.50;;
29984;SDS011;17387;42.690;23.328;2022-08-03T07:09:27;12.30;;;4.50;;
29984;SDS011;17387;42.690;23.328;2022-08-03T07:11:53;7.97;;;4.65;;
29984;SDS011;17387;42.690;23.328;2022-08-03T07:14:19;14.73;;;5.82;;
29984;SDS011;17387;42.690;23.328;2022-08-03T07:16:45;12.23;;;6.40;;
29984;SDS011;17387;42.690;23.328;2022-08-03T07:19:10;12.68;;;6.45;;
29984;SDS011;17387;42.690;23.328;2022-08-03T07:21:36;14.93;;;5.90;;
29984;SDS011;17387;42.690;23.328;2022-08-03T07:24:01;14.55;;;6.28;;
29984;SDS011;17387;42.690;23.328;2022-08-03T07:26:27;9.48;;;6.20;;
29984;SDS011;17387;42.690;23.328;2022-08-03T07:28:53;11.80;;;6.55;;
29984;SDS011;17387;42.690;23.328;2022-08-03T07:31:18;11.75;;;6.75;;
29984;SDS011;17387;42.690;23.328;2022-08-03T07:33:43;14.82;;;6.90;;
29984;SDS011;17387;42.690;23.328;2022-08-03T07:36:09;19.55;;;6.55;;
29984;SDS011;17387;42.690;23.328;2022-08-03T07:38:34;13.02;;;6.38;;
29984;SDS011;17387;42.690;23.328;2022-08-03T07:41:01;11.77;;;5.82;;
29984;SDS011;17387;42.690;23.328;2022-08-03T07:43:27;12.85;;;5.28;;
29984;SDS011;17387;42.690;23.328;2022-08-03T07:45:52;10.35;;;5.00;;
29984;SDS011;17387;42.690;23.328;2022-08-03T07:48:17;8.38;;;4.78;;
29984;SDS011;17387;42.690;23.328;2022-08-03T07:50:43;10.27;;;4.93;;
29984;SDS011;17387;42.690;23.328;2022-08-03T07:53:09;11.02;;;4.60;;
29984;SDS011;17387;42.690;23.328;2022-08-03T07:55:34;13.32;;;5.35;;
29984;SDS011;17387;42.690;23.328;2022-08-03T08:00:26;9.90;;;4.07;;
29984;SDS011;17387;42.690;23.328;2022-08-03T08:02:55;5.40;;;3.80;;
29984;SDS011;17387;42.690;23.328;2022-08-03T08:05:20;4.60;;;3.40;;
29984;SDS011;17387;42.690;23.328;2022-08-03T08:07:46;5.25;;;2.72;;
29984;SDS011;17387;42.690;23.328;2022-08-03T08:10:11;5.95;;;3.00;;
29984;SDS011;17387;42.690;23.328;2022-08-03T08:12:37;9.73;;;4.07;;
29984;SDS011;17387;42.690;23.328;2022-08-03T08:15:04;6.65;;;3.78;;
29984;SDS011;17387;42.690;23.328;2022-08-03T08:17:30;3.83;;;3.40;;
29984;SDS011;17387;42.690;23.328;2022-08-03T08:20:06;12.30;;;3.10;;
29984;SDS011;17387;42.690;23.328;2022-08-03T08:22:31;4.35;;;2.85;;
29984;SDS011;17387;42.690;23.328;2022-08-03T08:24:57;5.25;;;3.10;;
29984;SDS011;17387;42.690;23.328;2022-08-03T08:27:23;7.30;;;3.45;;
29984;SDS011;17387;42.690;23.328;2022-08-03T08:29:48;7.38;;;3.22;;
29984;SDS011;17387;42.690;23.328;2022-08-03T08:32:14;7.97;;;2.92;;
29984;SDS011;17387;42.690;23.328;2022-08-03T08:34:40;7.55;;;3.17;;
29984;SDS011;17387;42.690;23.328;2022-08-03T08:37:05;5.18;;;2.65;;
29984;SDS011;17387;42.690;23.328;2022-08-03T08:39:31;9.50;;;4.65;;
29984;SDS011;17387;42.690;23.328;2022-08-03T08:41:56;10.15;;;4.85;;
29984;SDS011;17387;42.690;23.328;2022-08-03T08:44:24;4.47;;;3.35;;
29984;SDS011;17387;42.690;23.328;2022-08-03T08:46:50;3.40;;;2.80;;
29984;SDS011;17387;42.690;23.328;2022-08-03T08:49:20;11.45;;;4.65;;
29984;SDS011;17387;42.690;23.328;2022-08-03T08:51:48;5.82;;;2.90;;
29984;SDS011;17387;42.690;23.328;2022-08-03T08:54:16;4.13;;;2.80;;
29984;SDS011;17387;42.690;23.328;2022-08-03T08:56:44;3.25;;;2.00;;
29984;SDS011;17387;42.690;23.328;2022-08-03T08:59:11;2.90;;;2.30;;
29984;SDS011;17387;42.690;23.328;2022-08-03T09:01:37;3.97;;;2.60;;
29984;SDS011;17387;42.690;23.328;2022-08-03T09:04:05;6.40;;;3.00;;
29984;SDS011;17387;42.690;23.328;2022-08-03T09:06:31;10.02;;;6.68;;
29984;SDS011;17387;42.690;23.328;2022-08-03T09:08:56;9.52;;;4.90;;
29984;SDS011;17387;42.690;23.328;2022-08-03T09:11:22;4.70;;;3.78;;
29984;SDS011;17387;42.690;23.328;2022-08-03T09:13:48;7.47;;;3.20;;
29984;SDS011;17387;42.690;23.328;2022-08-03T09:16:17;8.70;;;3.50;;
29984;SDS011;17387;42.690;23.328;2022-08-03T09:18:50;2.90;;;2.50;;
29984;SDS011;17387;42.690;23.328;2022-08-03T09:21:24;10.10;;;2.75;;
29984;SDS011;17387;42.690;23.328;2022-08-03T09:23:54;5.38;;;2.67;;
29984;SDS011;17387;42.690;23.328;2022-08-03T09:28:57;4.90;;;2.45;;
29984;SDS011;17387;42.690;23.328;2022-08-03T09:31:30;7.38;;;6.05;;
29984;SDS011;17387;42.690;23.328;2022-08-03T09:33:59;3.30;;;2.50;;
29984;SDS011;17387;42.690;23.328;2022-08-03T09:36:44;7.20;;;3.97;;
29984;SDS011;17387;42.690;23.328;2022-08-03T09:39:18;4.78;;;2.70;;
29984;SDS011;17387;42.690;23.328;2022-08-03T09:41:46;4.00;;;2.75;;
29984;SDS011;17387;42.690;23.328;2022-08-03T09:44:13;5.05;;;4.25;;
29984;SDS011;17387;42.690;23.328;2022-08-03T09:46:49;6.30;;;2.58;;
29984;SDS011;17387;42.690;23.328;2022-08-03T09:49:15;3.65;;;2.20;;
29984;SDS011;17387;42.690;23.328;2022-08-03T09:51:41;5.82;;;2.40;;
29984;SDS011;17387;42.690;23.328;2022-08-03T09:54:07;2.85;;;2.55;;
29984;SDS011;17387;42.690;23.328;2022-08-03T09:56:40;4.00;;;2.30;;
29984;SDS011;17387;42.690;23.328;2022-08-03T09:59:07;7.45;;;4.47;;
29984;SDS011;17387;42.690;23.328;2022-08-03T10:01:35;5.13;;;3.33;;
29984;SDS011;17387;42.690;23.328;2022-08-03T10:04:02;5.35;;;2.60;;
29984;SDS011;17387;42.690;23.328;2022-08-03T10:06:28;5.22;;;3.50;;
29984;SDS011;17387;42.690;23.328;2022-08-03T10:09:07;7.38;;;3.13;;
29984;SDS011;17387;42.690;23.328;2022-08-03T10:11:34;6.00;;;2.77;;
29984;SDS011;17387;42.690;23.328;2022-08-03T10:14:04;5.88;;;2.92;;
29984;SDS011;17387;42.690;23.328;2022-08-03T10:16:34;3.15;;;2.17;;
29984;SDS011;17387;42.690;23.328;2022-08-03T10:21:32;2.42;;;2.03;;
29984;SDS011;17387;42.690;23.328;2022-08-03T10:24:06;6.20;;;2.20;;
29984;SDS011;17387;42.690;23.328;2022-08-03T10:26:39;2.88;;;2.22;;
29984;SDS011;17387;42.690;23.328;2022-08-03T10:29:11;4.20;;;2.95;;
29984;SDS011;17387;42.690;23.328;2022-08-03T10:31:43;6.72;;;3.17;;
29984;SDS011;17387;42.690;23.328;2022-08-03T10:34:14;2.83;;;2.15;;
29984;SDS011;17387;42.690;23.328;2022-08-03T10:36:43;3.55;;;2.00;;
29984;SDS011;17387;42.690;23.328;2022-08-03T10:39:10;3.03;;;2.47;;
29984;SDS011;17387;42.690;23.328;2022-08-03T10:41:38;4.65;;;2.50;;
29984;SDS011;17387;42.690;23.328;2022-08-03T10:44:10;3.88;;;2.72;;
29984;SDS011;17387;42.690;23.328;2022-08-03T10:46:40;2.90;;;2.50;;
29984;SDS011;17387;42.690;23.328;2022-08-03T10:49:06;2.95;;;2.30;;
29984;SDS011;17387;42.690;23.328;2022-08-03T10:51:33;3.75;;;2.13;;
29984;SDS011;17387;42.690;23.328;2022-08-03T10:53:59;2.50;;;2.20;;
29984;SDS011;17387;42.690;23.328;2022-08-03T10:56:36;2.30;;;2.10;;
29984;SDS011;17387;42.690;23.328;2022-08-03T11:02:15;2.53;;;2.00;;
29984;SDS011;17387;42.690;23.328;2022-08-03T11:04:42;3.50;;;2.42;;
29984;SDS011;17387;42.690;23.328;2022-08-03T11:07:23;2.78;;;2.00;;
29984;SDS011;17387;42.690;23.328;2022-08-03T11:09:50;7.07;;;3.85;;
29984;SDS011;17387;42.690;23.328;2022-08-03T11:14:50;2.92;;;2.10;;
29984;SDS011;17387;42.690;23.328;2022-08-03T11:17:18;3.60;;;1.83;;
29984;SDS011;17387;42.690;23.328;2022-08-03T11:19:47;4.03;;;2.00;;
29984;SDS011;17387;42.690;23.328;2022-08-03T11:22:14;2.30;;;2.10;;
29984;SDS011;17387;42.690;23.328;2022-08-03T11:35:25;6.45;;;2.13;;
29984;SDS011;17387;42.690;23.328;2022-08-03T11:45:58;5.40;;;2.03;;
29984;SDS011;17387;42.690;23.328;2022-08-03T11:48:26;3.00;;;2.13;;
29984;SDS011;17387;42.690;23.328;2022-08-03T11:51:03;2.75;;;1.92;;
29984;SDS011;17387;42.690;23.328;2022-08-03T11:53:30;12.45;;;5.63;;
29984;SDS011;17387;42.690;23.328;2022-08-03T11:56:00;4.30;;;2.38;;
29984;SDS011;17387;42.690;23.328;2022-08-03T11:58:27;3.00;;;2.30;;
29984;SDS011;17387;42.690;23.328;2022-08-03T12:01:02;8.52;;;2.30;;
29984;SDS011;17387;42.690;23.328;2022-08-03T12:03:32;2.35;;;2.15;;
29984;SDS011;17387;42.690;23.328;2022-08-03T12:05:58;4.50;;;2.05;;
29984;SDS011;17387;42.690;23.328;2022-08-03T12:08:31;3.45;;;2.00;;
29984;SDS011;17387;42.690;23.328;2022-08-03T12:10:59;2.95;;;2.00;;
29984;SDS011;17387;42.690;23.328;2022-08-03T12:13:44;5.13;;;2.13;;
29984;SDS011;17387;42.690;23.328;2022-08-03T12:16:23;2.05;;;1.90;;
29984;SDS011;17387;42.690;23.328;2022-08-03T12:19:03;2.40;;;2.20;;
29984;SDS011;17387;42.690;23.328;2022-08-03T12:21:30;3.47;;;1.95;;
29984;SDS011;17387;42.690;23.328;2022-08-03T12:23:57;3.17;;;2.13;;
29984;SDS011;17387;42.690;23.328;2022-08-03T12:26:29;4.55;;;2.60;;
29984;SDS011;17387;42.690;23.328;2022-08-03T12:29:07;3.67;;;2.10;;
29984;SDS011;17387;42.690;23.328;2022-08-03T12:31:44;5.78;;;2.92;;
29984;SDS011;17387;42.690;23.328;2022-08-03T12:34:09;5.40;;;2.20;;
29984;SDS011;17387;42.690;23.328;2022-08-03T12:36:35;4.10;;;2.55;;
29984;SDS011;17387;42.690;23.328;2022-08-03T12:39:05;2.92;;;2.22;;
29984;SDS011;17387;42.690;23.328;2022-08-03T12:41:34;4.80;;;2.35;;
29984;SDS011;17387;42.690;23.328;2022-08-03T12:44:01;5.18;;;2.75;;
29984;SDS011;17387;42.690;23.328;2022-08-03T12:46:30;4.75;;;2.35;;
29984;SDS011;17387;42.690;23.328;2022-08-03T12:49:01;2.78;;;2.10;;
29984;SDS011;17387;42.690;23.328;2022-08-03T12:54:07;4.43;;;4.03;;
29984;SDS011;17387;42.690;23.328;2022-08-03T12:56:33;4.60;;;2.13;;
29984;SDS011;17387;42.690;23.328;2022-08-03T12:58:59;4.35;;;1.90;;
29984;SDS011;17387;42.690;23.328;2022-08-03T13:01:25;1.80;;;1.70;;
29984;SDS011;17387;42.690;23.328;2022-08-03T13:03:59;4.40;;;1.90;;
29984;SDS011;17387;42.690;23.328;2022-08-03T13:06:25;5.85;;;5.35;;
29984;SDS011;17387;42.690;23.328;2022-08-03T13:09:02;2.10;;;1.90;;
29984;SDS011;17387;42.690;23.328;2022-08-03T13:11:29;3.75;;;2.13;;
29984;SDS011;17387;42.690;23.328;2022-08-03T13:13:54;2.42;;;1.80;;
29984;SDS011;17387;42.690;23.328;2022-08-03T13:16:20;5.20;;;1.88;;
29984;SDS011;17387;42.690;23.328;2022-08-03T13:18:47;1.98;;;1.77;;
29984;SDS011;17387;42.690;23.328;2022-08-03T13:21:16;3.75;;;2.22;;
29984;SDS011;17387;42.690;23.328;2022-08-03T13:23:43;3.60;;;2.43;;
29984;SDS011;17387;42.690;23.328;2022-08-03T13:26:09;3.95;;;2.30;;
29984;SDS011;17387;42.690;23.328;2022-08-03T13:28:35;3.00;;;2.13;;
29984;SDS011;17387;42.690;23.328;2022-08-03T13:31:01;9.38;;;2.65;;
29984;SDS011;17387;42.690;23.328;2022-08-03T13:33:27;4.22;;;2.20;;
29984;SDS011;17387;42.690;23.328;2022-08-03T13:35:53;4.18;;;2.42;;
29984;SDS011;17387;42.690;23.328;2022-08-03T13:38:19;2.78;;;2.50;;
29984;SDS011;17387;42.690;23.328;2022-08-03T13:40:44;6.82;;;6.20;;
29984;SDS011;17387;42.690;23.328;2022-08-03T13:43:10;3.85;;;2.63;;
29984;SDS011;17387;42.690;23.328;2022-08-03T13:45:36;3.65;;;2.10;;
29984;SDS011;17387;42.690;23.328;2022-08-03T13:48:02;3.85;;;2.70;;
29984;SDS011;17387;42.690;23.328;2022-08-03T13:50:28;4.93;;;2.10;;
29984;SDS011;17387;42.690;23.328;2022-08-03T13:52:55;4.65;;;2.30;;
29984;SDS011;17387;42.690;23.328;2022-08-03T13:55:21;5.88;;;4.53;;
29984;SDS011;17387;42.690;23.328;2022-08-03T13:57:47;7.97;;;3.63;;
29984;SDS011;17387;42.690;23.328;2022-08-03T14:00:13;7.05;;;3.03;;
29984;SDS011;17387;42.690;23.328;2022-08-03T14:02:39;7.03;;;3.53;;
29984;SDS011;17387;42.690;23.328;2022-08-03T14:05:04;6.05;;;3.20;;
29984;SDS011;17387;42.690;23.328;2022-08-03T14:07:30;4.63;;;3.00;;
29984;SDS011;17387;42.690;23.328;2022-08-03T14:09:55;8.82;;;3.28;;
29984;SDS011;17387;42.690;23.328;2022-08-03T14:12:20;4.35;;;3.13;;
29984;SDS011;17387;42.690;23.328;2022-08-03T14:14:46;5.93;;;3.92;;
29984;SDS011;17387;42.690;23.328;2022-08-03T14:17:11;7.70;;;3.30;;
29984;SDS011;17387;42.690;23.328;2022-08-03T14:19:37;6.30;;;3.30;;
29984;SDS011;17387;42.690;23.328;2022-08-03T14:22:04;5.45;;;3.38;;
29984;SDS011;17387;42.690;23.328;2022-08-03T14:24:30;8.48;;;3.33;;
29984;SDS011;17387;42.690;23.328;2022-08-03T14:26:55;6.32;;;3.40;;
29984;SDS011;17387;42.690;23.328;2022-08-03T14:29:21;6.68;;;2.80;;
29984;SDS011;17387;42.690;23.328;2022-08-03T14:31:46;8.25;;;3.35;;
29984;SDS011;17387;42.690;23.328;2022-08-03T14:34:12;15.90;;;8.85;;
29984;SDS011;17387;42.690;23.328;2022-08-03T14:36:37;9.45;;;6.20;;
29984;SDS011;17387;42.690;23.328;2022-08-03T14:39:03;8.98;;;4.20;;
29984;SDS011;17387;42.690;23.328;2022-08-03T14:41:28;7.78;;;4.43;;
29984;SDS011;17387;42.690;23.328;2022-08-03T14:43:53;4.47;;;3.35;;
29984;SDS011;17387;42.690;23.328;2022-08-03T14:46:20;6.50;;;3.45;;
29984;SDS011;17387;42.690;23.328;2022-08-03T14:48:46;6.40;;;3.47;;
29984;SDS011;17387;42.690;23.328;2022-08-03T14:51:11;4.20;;;3.80;;
29984;SDS011;17387;42.690;23.328;2022-08-03T14:53:37;6.03;;;4.65;;
29984;SDS011;17387;42.690;23.328;2022-08-03T14:56:02;13.80;;;6.60;;
29984;SDS011;17387;42.690;23.328;2022-08-03T14:58:28;7.70;;;4.20;;
29984;SDS011;17387;42.690;23.328;2022-08-03T15:00:54;7.25;;;4.25;;
29984;SDS011;17387;42.690;23.328;2022-08-03T15:03:20;7.57;;;5.85;;
29984;SDS011;17387;42.690;23.328;2022-08-03T15:05:50;5.13;;;4.15;;
29984;SDS011;17387;42.690;23.328;2022-08-03T15:08:16;7.53;;;3.45;;
29984;SDS011;17387;42.690;23.328;2022-08-03T15:10:42;3.50;;;3.15;;
29984;SDS011;17387;42.690;23.328;2022-08-03T15:13:07;7.25;;;5.25;;
29984;SDS011;17387;42.690;23.328;2022-08-03T15:15:36;7.47;;;4.90;;
29984;SDS011;17387;42.690;23.328;2022-08-03T15:20:35;4.75;;;3.50;;
29984;SDS011;17387;42.690;23.328;2022-08-03T15:23:12;10.25;;;6.18;;
29984;SDS011;17387;42.690;23.328;2022-08-03T15:25:54;8.27;;;6.18;;
29984;SDS011;17387;42.690;23.328;2022-08-03T15:31:41;8.50;;;3.78;;
29984;SDS011;17387;42.690;23.328;2022-08-03T15:34:58;11.27;;;6.15;;
29984;SDS011;17387;42.690;23.328;2022-08-03T15:37:48;10.82;;;5.80;;